sensor_id;sensor_type;location;lat;lon;timestamp;P1;durP1;ratioP1;P2;durP2;ratioP2
18066;SDS011;9158;51.528;7.192;2022-09-09T00:00:05;0.75;;;0.75;;
18066;SDS011;9158;51.528;7.192;2022-09-09T00:00:44;1.55;;;0.80;;
18066;SDS011;9158;51.528;7.192;2022-09-09T00:01:23;1.00;;;0.77;;
18066;SDS011;9158;51.528;7.192;2022-09-09T00:02:06;1.70;;;0.68;;
18066;SDS011;9158;51.528;7.192;2022-09-09T00:02:49;2.95;;;0.98;;
18066;SDS011;9158;51.528;7.192;2022-09-09T00:03:25;1.75;;;0.80;;
18066;SDS011;9158;51.528;7.192;2022-09-09T00:03:59;1.42;;;1.00;;
18066;SDS011;9158;51.528;7.192;2022-09-09T00:04:35;1.23;;;1.10;;
18066;SDS011;9158;51.528;7.192;2022-09-09T00:05:12;1.20;;;1.05;;
18066;SDS011;9158;51.528;7.192;2022-09-09T00:05:51;1.80;;;0.80;;
18066;SDS011;9158;51.528;7.192;2022-09-09T00:06:30;2.35;;;0.90;;
18066;SDS011;9158;51.528;7.192;2022-09-09T00:07:07;2.17;;;0.90;;
18066;SDS011;9158;51.528;7.192;2022-09-09T00:07:46;2.20;;;0.93;;
18066;SDS011;9158;51.528;7.192;2022-09-09T00:08:20;2.90;;;0.90;;
18066;SDS011;9158;51.528;7.192;2022-09-09T00:08:59;2.80;;;0.98;;
18066;SDS011;9158;51.528;7.192;2022-09-09T00:09:36;0.70;;;0.70;;
18066;SDS011;9158;51.528;7.192;2022-09-09T00:10:18;2.50;;;1.00;;
18066;SDS011;9158;51.528;7.192;2022-09-09T00:10:58;1.38;;;0.75;;
18066;SDS011;9158;51.528;7.192;2022-09-09T00:11:35;3.40;;;0.80;;
18066;SDS011;9158;51.528;7.192;2022-09-09T00:12:11;1.05;;;0.95;;
18066;SDS011;9158;51.528;7.192;2022-09-09T00:12:48;2.22;;;1.00;;
18066;SDS011;9158;51.528;7.192;2022-09-09T00:13:27;1.45;;;0.75;;
18066;SDS011;9158;51.528;7.192;2022-09-09T00:14:03;0.77;;;0.77;;
18066;SDS011;9158;51.528;7.192;2022-09-09T00:14:45;1.05;;;0.77;;
18066;SDS011;9158;51.528;7.192;2022-09-09T00:15:22;1.65;;;0.80;;
18066;SDS011;9158;51.528;7.192;2022-09-09T00:15:57;2.05;;;1.00;;
18066;SDS011;9158;51.528;7.192;2022-09-09T00:16:35;1.25;;;1.15;;
18066;SDS011;9158;51.528;7.192;2022-09-09T00:17:12;1.73;;;0.80;;
18066;SDS011;9158;51.528;7.192;2022-09-09T00:17:49;1.25;;;0.80;;
18066;SDS011;9158;51.528;7.192;2022-09-09T00:18:28;2.05;;;0.90;;
18066;SDS011;9158;51.528;7.192;2022-09-09T00:19:07;4.03;;;1.60;;
18066;SDS011;9158;51.528;7.192;2022-09-09T00:19:49;2.53;;;1.05;;
18066;SDS011;9158;51.528;7.192;2022-09-09T00:20:29;0.85;;;0.70;;
18066;SDS011;9158;51.528;7.192;2022-09-09T00:21:06;2.05;;;0.60;;
18066;SDS011;9158;51.528;7.192;2022-09-09T00:21:43;2.10;;;0.80;;
18066;SDS011;9158;51.528;7.192;2022-09-09T00:22:23;0.90;;;0.60;;
18066;SDS011;9158;51.528;7.192;2022-09-09T00:23:00;1.20;;;0.65;;
18066;SDS011;9158;51.528;7.192;2022-09-09T00:23:37;1.30;;;1.00;;
18066;SDS011;9158;51.528;7.192;2022-09-09T00:24:11;3.08;;;1.33;;
18066;SDS011;9158;51.528;7.192;2022-09-09T00:24:51;0.85;;;0.70;;
18066;SDS011;9158;51.528;7.192;2022-09-09T00:25:28;1.30;;;0.70;;
18066;SDS011;9158;51.528;7.192;2022-09-09T00:26:05;0.85;;;0.77;;
18066;SDS011;9158;51.528;7.192;2022-09-09T00:26:40;2.10;;;1.00;;
18066;SDS011;9158;51.528;7.192;2022-09-09T00:27:17;1.90;;;1.10;;
18066;SDS011;9158;51.528;7.192;2022-09-09T00:27:54;2.05;;;1.05;;
18066;SDS011;9158;51.528;7.192;2022-09-09T00:28:26;1.30;;;1.20;;
18066;SDS011;9158;51.528;7.192;2022-09-09T00:29:03;1.17;;;0.85;;
18066;SDS011;9158;51.528;7.192;2022-09-09T00:29:43;1.33;;;1.23;;
18066;SDS011;9158;51.528;7.192;2022-09-09T00:30:18;1.15;;;1.05;;
18066;SDS011;9158;51.528;7.192;2022-09-09T00:30:53;3.47;;;1.45;;
18066;SDS011;9158;51.528;7.192;2022-09-09T00:31:28;1.08;;;0.73;;
18066;SDS011;9158;51.528;7.192;2022-09-09T00:32:04;1.30;;;1.20;;
18066;SDS011;9158;51.528;7.192;2022-09-09T00:32:43;1.60;;;1.23;;
18066;SDS011;9158;51.528;7.192;2022-09-09T00:33:15;0.75;;;0.75;;
18066;SDS011;9158;51.528;7.192;2022-09-09T00:33:51;1.38;;;0.88;;
18066;SDS011;9158;51.528;7.192;2022-09-09T00:34:25;1.73;;;0.88;;
18066;SDS011;9158;51.528;7.192;2022-09-09T00:34:59;2.78;;;1.23;;
18066;SDS011;9158;51.528;7.192;2022-09-09T00:35:34;1.80;;;0.90;;
18066;SDS011;9158;51.528;7.192;2022-09-09T00:36:12;1.30;;;1.15;;
18066;SDS011;9158;51.528;7.192;2022-09-09T00:36:45;4.35;;;1.10;;
18066;SDS011;9158;51.528;7.192;2022-09-09T00:37:19;1.35;;;1.13;;
18066;SDS011;9158;51.528;7.192;2022-09-09T00:37:56;1.30;;;0.85;;
18066;SDS011;9158;51.528;7.192;2022-09-09T00:38:33;1.60;;;1.00;;
18066;SDS011;9158;51.528;7.192;2022-09-09T00:39:08;1.40;;;0.80;;
18066;SDS011;9158;51.528;7.192;2022-09-09T00:39:45;1.63;;;0.90;;
18066;SDS011;9158;51.528;7.192;2022-09-09T00:40:21;1.95;;;0.82;;
18066;SDS011;9158;51.528;7.192;2022-09-09T00:40:58;1.58;;;0.70;;
18066;SDS011;9158;51.528;7.192;2022-09-09T00:41:38;2.08;;;1.20;;
18066;SDS011;9158;51.528;7.192;2022-09-09T00:42:19;1.23;;;0.63;;
18066;SDS011;9158;51.528;7.192;2022-09-09T00:42:57;0.93;;;0.80;;
18066;SDS011;9158;51.528;7.192;2022-09-09T00:43:55;1.45;;;1.30;;
18066;SDS011;9158;51.528;7.192;2022-09-09T00:44:30;1.27;;;0.95;;
18066;SDS011;9158;51.528;7.192;2022-09-09T00:45:09;2.00;;;0.70;;
18066;SDS011;9158;51.528;7.192;2022-09-09T00:45:57;0.98;;;0.93;;
18066;SDS011;9158;51.528;7.192;2022-09-09T00:46:59;1.83;;;1.30;;
18066;SDS011;9158;51.528;7.192;2022-09-09T00:47:51;2.30;;;0.85;;
18066;SDS011;9158;51.528;7.192;2022-09-09T00:48:24;2.35;;;0.73;;
18066;SDS011;9158;51.528;7.192;2022-09-09T00:49:04;2.75;;;1.38;;
18066;SDS011;9158;51.528;7.192;2022-09-09T00:49:48;1.80;;;1.10;;
18066;SDS011;9158;51.528;7.192;2022-09-09T00:50:35;1.75;;;0.88;;
18066;SDS011;9158;51.528;7.192;2022-09-09T00:51:15;1.25;;;0.75;;
18066;SDS011;9158;51.528;7.192;2022-09-09T00:51:57;2.45;;;0.90;;
18066;SDS011;9158;51.528;7.192;2022-09-09T00:52:39;2.00;;;0.98;;
18066;SDS011;9158;51.528;7.192;2022-09-09T00:53:22;2.10;;;1.02;;
18066;SDS011;9158;51.528;7.192;2022-09-09T00:54:06;2.33;;;0.88;;
18066;SDS011;9158;51.528;7.192;2022-09-09T00:54:50;1.50;;;0.80;;
18066;SDS011;9158;51.528;7.192;2022-09-09T00:55:31;0.65;;;0.63;;
18066;SDS011;9158;51.528;7.192;2022-09-09T00:56:13;1.65;;;0.90;;
18066;SDS011;9158;51.528;7.192;2022-09-09T00:56:47;2.65;;;1.70;;
18066;SDS011;9158;51.528;7.192;2022-09-09T00:57:28;1.50;;;0.88;;
18066;SDS011;9158;51.528;7.192;2022-09-09T00:58:01;1.58;;;1.00;;
18066;SDS011;9158;51.528;7.192;2022-09-09T00:58:32;1.80;;;0.85;;
18066;SDS011;9158;51.528;7.192;2022-09-09T00:59:06;3.03;;;1.33;;
18066;SDS011;9158;51.528;7.192;2022-09-09T00:59:47;3.28;;;0.73;;
18066;SDS011;9158;51.528;7.192;2022-09-09T01:00:21;1.88;;;0.90;;
18066;SDS011;9158;51.528;7.192;2022-09-09T01:00:56;1.45;;;0.70;;
18066;SDS011;9158;51.528;7.192;2022-09-09T01:01:31;1.85;;;0.95;;
18066;SDS011;9158;51.528;7.192;2022-09-09T01:02:03;1.10;;;1.08;;
18066;SDS011;9158;51.528;7.192;2022-09-09T01:02:47;1.33;;;0.73;;
18066;SDS011;9158;51.528;7.192;2022-09-09T01:03:34;0.80;;;0.60;;
18066;SDS011;9158;51.528;7.192;2022-09-09T01:04:09;2.50;;;1.25;;
18066;SDS011;9158;51.528;7.192;2022-09-09T01:04:46;1.80;;;1.33;;
18066;SDS011;9158;51.528;7.192;2022-09-09T01:05:18;2.00;;;1.13;;
18066;SDS011;9158;51.528;7.192;2022-09-09T01:05:59;0.80;;;0.80;;
18066;SDS011;9158;51.528;7.192;2022-09-09T01:06:53;1.38;;;0.88;;
18066;SDS011;9158;51.528;7.192;2022-09-09T01:07:33;1.98;;;0.60;;
18066;SDS011;9158;51.528;7.192;2022-09-09T01:08:06;1.58;;;0.85;;
18066;SDS011;9158;51.528;7.192;2022-09-09T01:09:02;0.68;;;0.68;;
18066;SDS011;9158;51.528;7.192;2022-09-09T01:09:42;1.10;;;1.00;;
18066;SDS011;9158;51.528;7.192;2022-09-09T01:10:24;1.20;;;0.65;;
18066;SDS011;9158;51.528;7.192;2022-09-09T01:11:01;3.22;;;1.70;;
18066;SDS011;9158;51.528;7.192;2022-09-09T01:11:37;0.70;;;0.70;;
18066;SDS011;9158;51.528;7.192;2022-09-09T01:12:23;3.88;;;1.10;;
18066;SDS011;9158;51.528;7.192;2022-09-09T01:13:00;0.95;;;0.77;;
18066;SDS011;9158;51.528;7.192;2022-09-09T01:13:39;3.47;;;1.05;;
18066;SDS011;9158;51.528;7.192;2022-09-09T01:14:19;1.05;;;0.80;;
18066;SDS011;9158;51.528;7.192;2022-09-09T01:15:03;0.82;;;0.60;;
18066;SDS011;9158;51.528;7.192;2022-09-09T01:15:41;0.52;;;0.52;;
18066;SDS011;9158;51.528;7.192;2022-09-09T01:16:15;3.50;;;0.95;;
18066;SDS011;9158;51.528;7.192;2022-09-09T01:16:48;0.80;;;0.70;;
18066;SDS011;9158;51.528;7.192;2022-09-09T01:17:21;0.93;;;0.60;;
18066;SDS011;9158;51.528;7.192;2022-09-09T01:18:05;1.20;;;0.68;;
18066;SDS011;9158;51.528;7.192;2022-09-09T01:18:44;0.65;;;0.50;;
18066;SDS011;9158;51.528;7.192;2022-09-09T01:19:18;2.33;;;0.70;;
18066;SDS011;9158;51.528;7.192;2022-09-09T01:19:57;0.65;;;0.63;;
18066;SDS011;9158;51.528;7.192;2022-09-09T01:20:43;1.38;;;0.85;;
18066;SDS011;9158;51.528;7.192;2022-09-09T01:21:21;3.28;;;0.80;;
18066;SDS011;9158;51.528;7.192;2022-09-09T01:22:03;0.60;;;0.60;;
18066;SDS011;9158;51.528;7.192;2022-09-09T01:22:44;1.92;;;0.63;;
18066;SDS011;9158;51.528;7.192;2022-09-09T01:23:35;0.95;;;0.70;;
18066;SDS011;9158;51.528;7.192;2022-09-09T01:24:42;0.75;;;0.75;;
18066;SDS011;9158;51.528;7.192;2022-09-09T01:26:46;1.20;;;0.73;;
18066;SDS011;9158;51.528;7.192;2022-09-09T01:27:31;0.77;;;0.60;;
18066;SDS011;9158;51.528;7.192;2022-09-09T01:28:05;1.67;;;0.80;;
18066;SDS011;9158;51.528;7.192;2022-09-09T01:28:40;1.05;;;0.95;;
18066;SDS011;9158;51.528;7.192;2022-09-09T01:29:17;1.95;;;0.70;;
18066;SDS011;9158;51.528;7.192;2022-09-09T01:29:51;3.10;;;1.08;;
18066;SDS011;9158;51.528;7.192;2022-09-09T01:30:23;1.48;;;0.90;;
18066;SDS011;9158;51.528;7.192;2022-09-09T01:30:56;1.23;;;1.13;;
18066;SDS011;9158;51.528;7.192;2022-09-09T01:31:32;1.60;;;0.70;;
18066;SDS011;9158;51.528;7.192;2022-09-09T01:33:12;3.88;;;2.70;;
18066;SDS011;9158;51.528;7.192;2022-09-09T01:33:44;2.38;;;0.70;;
18066;SDS011;9158;51.528;7.192;2022-09-09T01:34:16;2.40;;;1.00;;
18066;SDS011;9158;51.528;7.192;2022-09-09T01:34:49;2.00;;;1.25;;
18066;SDS011;9158;51.528;7.192;2022-09-09T01:35:26;1.67;;;0.90;;
18066;SDS011;9158;51.528;7.192;2022-09-09T01:36:06;2.75;;;1.13;;
18066;SDS011;9158;51.528;7.192;2022-09-09T01:36:53;0.90;;;0.73;;
18066;SDS011;9158;51.528;7.192;2022-09-09T01:37:28;3.70;;;1.00;;
18066;SDS011;9158;51.528;7.192;2022-09-09T01:37:59;2.53;;;1.00;;
18066;SDS011;9158;51.528;7.192;2022-09-09T01:38:31;1.67;;;1.00;;
18066;SDS011;9158;51.528;7.192;2022-09-09T01:39:04;2.25;;;0.90;;
18066;SDS011;9158;51.528;7.192;2022-09-09T01:39:37;2.05;;;1.25;;
18066;SDS011;9158;51.528;7.192;2022-09-09T01:40:15;4.05;;;0.90;;
18066;SDS011;9158;51.528;7.192;2022-09-09T01:40:46;2.28;;;1.33;;
18066;SDS011;9158;51.528;7.192;2022-09-09T01:41:20;1.80;;;1.10;;
18066;SDS011;9158;51.528;7.192;2022-09-09T01:42:09;1.60;;;1.00;;
18066;SDS011;9158;51.528;7.192;2022-09-09T01:42:42;2.35;;;1.10;;
18066;SDS011;9158;51.528;7.192;2022-09-09T01:43:13;1.33;;;1.10;;
18066;SDS011;9158;51.528;7.192;2022-09-09T01:43:45;1.02;;;1.02;;
18066;SDS011;9158;51.528;7.192;2022-09-09T01:44:17;2.13;;;1.20;;
18066;SDS011;9158;51.528;7.192;2022-09-09T01:44:50;2.15;;;1.38;;
18066;SDS011;9158;51.528;7.192;2022-09-09T01:45:22;1.55;;;1.30;;
18066;SDS011;9158;51.528;7.192;2022-09-09T01:45:55;1.38;;;1.27;;
18066;SDS011;9158;51.528;7.192;2022-09-09T01:46:28;3.20;;;1.35;;
18066;SDS011;9158;51.528;7.192;2022-09-09T01:47:02;1.52;;;1.02;;
18066;SDS011;9158;51.528;7.192;2022-09-09T01:47:33;2.55;;;1.30;;
18066;SDS011;9158;51.528;7.192;2022-09-09T01:48:21;2.47;;;1.40;;
18066;SDS011;9158;51.528;7.192;2022-09-09T01:49:06;1.30;;;1.20;;
18066;SDS011;9158;51.528;7.192;2022-09-09T01:49:38;1.55;;;1.27;;
18066;SDS011;9158;51.528;7.192;2022-09-09T01:50:20;3.60;;;1.60;;
18066;SDS011;9158;51.528;7.192;2022-09-09T01:50:52;1.95;;;1.15;;
18066;SDS011;9158;51.528;7.192;2022-09-09T01:51:23;1.77;;;1.20;;
18066;SDS011;9158;51.528;7.192;2022-09-09T01:51:55;2.03;;;1.30;;
18066;SDS011;9158;51.528;7.192;2022-09-09T01:52:32;2.70;;;1.60;;
18066;SDS011;9158;51.528;7.192;2022-09-09T01:53:06;2.35;;;1.67;;
18066;SDS011;9158;51.528;7.192;2022-09-09T01:53:38;4.78;;;1.17;;
18066;SDS011;9158;51.528;7.192;2022-09-09T01:54:13;2.50;;;1.77;;
18066;SDS011;9158;51.528;7.192;2022-09-09T01:54:44;1.60;;;1.50;;
18066;SDS011;9158;51.528;7.192;2022-09-09T01:55:19;2.53;;;1.17;;
18066;SDS011;9158;51.528;7.192;2022-09-09T01:56:02;4.25;;;1.60;;
18066;SDS011;9158;51.528;7.192;2022-09-09T01:56:50;2.45;;;2.00;;
18066;SDS011;9158;51.528;7.192;2022-09-09T01:57:34;1.58;;;1.48;;
18066;SDS011;9158;51.528;7.192;2022-09-09T01:58:18;3.30;;;1.65;;
18066;SDS011;9158;51.528;7.192;2022-09-09T01:59:03;2.97;;;1.30;;
18066;SDS011;9158;51.528;7.192;2022-09-09T01:59:45;1.40;;;1.10;;
18066;SDS011;9158;51.528;7.192;2022-09-09T02:00:22;4.10;;;1.80;;
18066;SDS011;9158;51.528;7.192;2022-09-09T02:01:01;1.83;;;1.52;;
18066;SDS011;9158;51.528;7.192;2022-09-09T02:01:41;2.80;;;1.52;;
18066;SDS011;9158;51.528;7.192;2022-09-09T02:02:23;1.45;;;1.35;;
18066;SDS011;9158;51.528;7.192;2022-09-09T02:03:12;1.48;;;1.38;;
18066;SDS011;9158;51.528;7.192;2022-09-09T02:03:57;2.15;;;1.50;;
18066;SDS011;9158;51.528;7.192;2022-09-09T02:04:35;1.60;;;1.50;;
18066;SDS011;9158;51.528;7.192;2022-09-09T02:05:17;3.38;;;1.35;;
18066;SDS011;9158;51.528;7.192;2022-09-09T02:06:01;2.65;;;1.67;;
18066;SDS011;9158;51.528;7.192;2022-09-09T02:06:44;3.30;;;1.60;;
18066;SDS011;9158;51.528;7.192;2022-09-09T02:07:30;6.40;;;2.00;;
18066;SDS011;9158;51.528;7.192;2022-09-09T02:08:14;1.95;;;1.80;;
18066;SDS011;9158;51.528;7.192;2022-09-09T02:09:02;3.72;;;2.30;;
18066;SDS011;9158;51.528;7.192;2022-09-09T02:09:37;2.75;;;1.58;;
18066;SDS011;9158;51.528;7.192;2022-09-09T02:10:14;2.20;;;1.80;;
18066;SDS011;9158;51.528;7.192;2022-09-09T02:10:59;6.18;;;2.20;;
18066;SDS011;9158;51.528;7.192;2022-09-09T02:11:43;3.55;;;1.48;;
18066;SDS011;9158;51.528;7.192;2022-09-09T02:12:29;4.80;;;1.98;;
18066;SDS011;9158;51.528;7.192;2022-09-09T02:13:04;2.45;;;1.90;;
18066;SDS011;9158;51.528;7.192;2022-09-09T02:13:40;2.13;;;1.70;;
18066;SDS011;9158;51.528;7.192;2022-09-09T02:14:18;2.60;;;1.95;;
18066;SDS011;9158;51.528;7.192;2022-09-09T02:14:58;3.35;;;1.92;;
18066;SDS011;9158;51.528;7.192;2022-09-09T02:15:42;2.10;;;1.70;;
18066;SDS011;9158;51.528;7.192;2022-09-09T02:16:20;4.82;;;1.70;;
18066;SDS011;9158;51.528;7.192;2022-09-09T02:16:55;3.28;;;2.20;;
18066;SDS011;9158;51.528;7.192;2022-09-09T02:17:42;3.35;;;2.20;;
18066;SDS011;9158;51.528;7.192;2022-09-09T02:18:21;3.85;;;2.00;;
18066;SDS011;9158;51.528;7.192;2022-09-09T02:18:57;3.72;;;2.20;;
18066;SDS011;9158;51.528;7.192;2022-09-09T02:19:44;2.10;;;1.95;;
18066;SDS011;9158;51.528;7.192;2022-09-09T02:20:40;3.13;;;2.00;;
18066;SDS011;9158;51.528;7.192;2022-09-09T02:21:13;4.20;;;2.20;;
18066;SDS011;9158;51.528;7.192;2022-09-09T02:21:47;3.35;;;2.05;;
18066;SDS011;9158;51.528;7.192;2022-09-09T02:22:19;2.10;;;1.90;;
18066;SDS011;9158;51.528;7.192;2022-09-09T02:22:53;2.88;;;2.20;;
18066;SDS011;9158;51.528;7.192;2022-09-09T02:23:28;2.67;;;1.77;;
18066;SDS011;9158;51.528;7.192;2022-09-09T02:24:00;3.33;;;1.90;;
18066;SDS011;9158;51.528;7.192;2022-09-09T02:24:39;2.72;;;2.03;;
18066;SDS011;9158;51.528;7.192;2022-09-09T02:25:24;2.95;;;2.42;;
18066;SDS011;9158;51.528;7.192;2022-09-09T02:26:03;3.13;;;2.40;;
18066;SDS011;9158;51.528;7.192;2022-09-09T02:26:37;4.88;;;1.98;;
18066;SDS011;9158;51.528;7.192;2022-09-09T02:27:11;5.95;;;2.20;;
18066;SDS011;9158;51.528;7.192;2022-09-09T02:27:46;2.60;;;1.80;;
18066;SDS011;9158;51.528;7.192;2022-09-09T02:28:20;3.97;;;2.05;;
18066;SDS011;9158;51.528;7.192;2022-09-09T02:28:56;1.88;;;1.77;;
18066;SDS011;9158;51.528;7.192;2022-09-09T02:29:30;1.60;;;1.50;;
18066;SDS011;9158;51.528;7.192;2022-09-09T02:30:06;4.10;;;1.75;;
18066;SDS011;9158;51.528;7.192;2022-09-09T02:30:46;3.08;;;1.85;;
18066;SDS011;9158;51.528;7.192;2022-09-09T02:31:24;2.35;;;2.15;;
18066;SDS011;9158;51.528;7.192;2022-09-09T02:32:03;4.15;;;2.15;;
18066;SDS011;9158;51.528;7.192;2022-09-09T02:32:40;2.75;;;2.50;;
18066;SDS011;9158;51.528;7.192;2022-09-09T02:33:15;2.00;;;1.80;;
18066;SDS011;9158;51.528;7.192;2022-09-09T02:33:52;2.80;;;2.60;;
18066;SDS011;9158;51.528;7.192;2022-09-09T02:34:25;2.53;;;1.95;;
18066;SDS011;9158;51.528;7.192;2022-09-09T02:35:00;2.97;;;1.92;;
18066;SDS011;9158;51.528;7.192;2022-09-09T02:35:36;4.22;;;2.10;;
18066;SDS011;9158;51.528;7.192;2022-09-09T02:36:08;2.97;;;2.05;;
18066;SDS011;9158;51.528;7.192;2022-09-09T02:36:43;2.33;;;1.90;;
18066;SDS011;9158;51.528;7.192;2022-09-09T02:37:18;7.22;;;2.53;;
18066;SDS011;9158;51.528;7.192;2022-09-09T02:37:54;2.47;;;1.90;;
18066;SDS011;9158;51.528;7.192;2022-09-09T02:38:29;2.90;;;2.10;;
18066;SDS011;9158;51.528;7.192;2022-09-09T02:39:12;4.10;;;2.35;;
18066;SDS011;9158;51.528;7.192;2022-09-09T02:39:44;1.90;;;1.80;;
18066;SDS011;9158;51.528;7.192;2022-09-09T02:40:18;6.78;;;1.90;;
18066;SDS011;9158;51.528;7.192;2022-09-09T02:40:57;3.70;;;2.20;;
18066;SDS011;9158;51.528;7.192;2022-09-09T02:41:30;2.10;;;1.90;;
18066;SDS011;9158;51.528;7.192;2022-09-09T02:42:04;5.35;;;2.97;;
18066;SDS011;9158;51.528;7.192;2022-09-09T02:42:38;3.47;;;2.00;;
18066;SDS011;9158;51.528;7.192;2022-09-09T02:43:11;2.35;;;2.03;;
18066;SDS011;9158;51.528;7.192;2022-09-09T02:43:46;2.22;;;2.08;;
18066;SDS011;9158;51.528;7.192;2022-09-09T02:44:19;2.42;;;1.90;;
18066;SDS011;9158;51.528;7.192;2022-09-09T02:44:53;4.43;;;2.00;;
18066;SDS011;9158;51.528;7.192;2022-09-09T02:45:26;2.85;;;2.42;;
18066;SDS011;9158;51.528;7.192;2022-09-09T02:46:03;2.20;;;2.00;;
18066;SDS011;9158;51.528;7.192;2022-09-09T02:46:48;2.00;;;1.80;;
18066;SDS011;9158;51.528;7.192;2022-09-09T02:47:30;2.47;;;2.13;;
18066;SDS011;9158;51.528;7.192;2022-09-09T02:48:12;5.50;;;2.25;;
18066;SDS011;9158;51.528;7.192;2022-09-09T02:48:51;4.75;;;2.67;;
18066;SDS011;9158;51.528;7.192;2022-09-09T02:49:37;8.68;;;3.40;;
18066;SDS011;9158;51.528;7.192;2022-09-09T02:50:16;2.22;;;1.80;;
18066;SDS011;9158;51.528;7.192;2022-09-09T02:50:54;3.65;;;2.20;;
18066;SDS011;9158;51.528;7.192;2022-09-09T02:51:37;2.30;;;1.95;;
18066;SDS011;9158;51.528;7.192;2022-09-09T02:52:17;6.47;;;2.72;;
18066;SDS011;9158;51.528;7.192;2022-09-09T02:52:59;5.07;;;2.40;;
18066;SDS011;9158;51.528;7.192;2022-09-09T02:53:40;3.33;;;2.05;;
18066;SDS011;9158;51.528;7.192;2022-09-09T02:54:26;3.08;;;2.00;;
18066;SDS011;9158;51.528;7.192;2022-09-09T02:55:04;2.95;;;2.15;;
18066;SDS011;9158;51.528;7.192;2022-09-09T02:55:39;4.75;;;2.03;;
18066;SDS011;9158;51.528;7.192;2022-09-09T02:56:17;4.68;;;2.20;;
18066;SDS011;9158;51.528;7.192;2022-09-09T02:56:53;7.95;;;2.47;;
18066;SDS011;9158;51.528;7.192;2022-09-09T02:57:29;6.80;;;2.05;;
18066;SDS011;9158;51.528;7.192;2022-09-09T02:58:04;2.53;;;1.95;;
18066;SDS011;9158;51.528;7.192;2022-09-09T02:58:40;4.97;;;2.42;;
18066;SDS011;9158;51.528;7.192;2022-09-09T02:59:12;3.35;;;2.40;;
18066;SDS011;9158;51.528;7.192;2022-09-09T02:59:44;2.33;;;2.17;;
18066;SDS011;9158;51.528;7.192;2022-09-09T03:00:22;4.82;;;2.67;;
18066;SDS011;9158;51.528;7.192;2022-09-09T03:00:55;3.33;;;2.00;;
18066;SDS011;9158;51.528;7.192;2022-09-09T03:01:29;4.00;;;1.85;;
18066;SDS011;9158;51.528;7.192;2022-09-09T03:02:00;4.45;;;2.63;;
18066;SDS011;9158;51.528;7.192;2022-09-09T03:02:31;2.85;;;2.17;;
18066;SDS011;9158;51.528;7.192;2022-09-09T03:03:08;2.85;;;2.35;;
18066;SDS011;9158;51.528;7.192;2022-09-09T03:03:40;3.47;;;2.40;;
18066;SDS011;9158;51.528;7.192;2022-09-09T03:04:16;3.10;;;2.42;;
18066;SDS011;9158;51.528;7.192;2022-09-09T03:04:48;4.90;;;2.10;;
18066;SDS011;9158;51.528;7.192;2022-09-09T03:05:21;3.92;;;2.70;;
18066;SDS011;9158;51.528;7.192;2022-09-09T03:05:54;3.22;;;2.53;;
18066;SDS011;9158;51.528;7.192;2022-09-09T03:06:27;2.85;;;2.10;;
18066;SDS011;9158;51.528;7.192;2022-09-09T03:07:06;4.32;;;2.00;;
18066;SDS011;9158;51.528;7.192;2022-09-09T03:07:37;3.15;;;2.58;;
18066;SDS011;9158;51.528;7.192;2022-09-09T03:08:11;2.20;;;2.08;;
18066;SDS011;9158;51.528;7.192;2022-09-09T03:08:43;4.45;;;2.55;;
18066;SDS011;9158;51.528;7.192;2022-09-09T03:09:15;3.17;;;2.03;;
18066;SDS011;9158;51.528;7.192;2022-09-09T03:09:47;4.30;;;2.25;;
18066;SDS011;9158;51.528;7.192;2022-09-09T03:10:19;1.95;;;1.80;;
18066;SDS011;9158;51.528;7.192;2022-09-09T03:10:50;2.33;;;2.13;;
18066;SDS011;9158;51.528;7.192;2022-09-09T03:11:24;3.28;;;2.20;;
18066;SDS011;9158;51.528;7.192;2022-09-09T03:11:55;3.92;;;2.45;;
18066;SDS011;9158;51.528;7.192;2022-09-09T03:12:26;2.20;;;2.00;;
18066;SDS011;9158;51.528;7.192;2022-09-09T03:12:58;2.50;;;2.30;;
18066;SDS011;9158;51.528;7.192;2022-09-09T03:13:31;3.90;;;2.20;;
18066;SDS011;9158;51.528;7.192;2022-09-09T03:14:04;6.03;;;2.70;;
18066;SDS011;9158;51.528;7.192;2022-09-09T03:14:36;3.38;;;2.53;;
18066;SDS011;9158;51.528;7.192;2022-09-09T03:15:08;2.70;;;2.50;;
18066;SDS011;9158;51.528;7.192;2022-09-09T03:15:41;2.88;;;2.00;;
18066;SDS011;9158;51.528;7.192;2022-09-09T03:16:18;3.05;;;2.30;;
18066;SDS011;9158;51.528;7.192;2022-09-09T03:16:52;3.58;;;2.35;;
18066;SDS011;9158;51.528;7.192;2022-09-09T03:17:24;2.05;;;1.85;;
18066;SDS011;9158;51.528;7.192;2022-09-09T03:17:59;2.90;;;2.67;;
18066;SDS011;9158;51.528;7.192;2022-09-09T03:18:30;3.05;;;2.50;;
18066;SDS011;9158;51.528;7.192;2022-09-09T03:19:02;1.90;;;1.80;;
18066;SDS011;9158;51.528;7.192;2022-09-09T03:19:35;6.38;;;2.00;;
18066;SDS011;9158;51.528;7.192;2022-09-09T03:20:06;3.63;;;2.17;;
18066;SDS011;9158;51.528;7.192;2022-09-09T03:20:41;2.90;;;1.75;;
18066;SDS011;9158;51.528;7.192;2022-09-09T03:21:14;2.08;;;1.83;;
18066;SDS011;9158;51.528;7.192;2022-09-09T03:21:46;3.80;;;2.63;;
18066;SDS011;9158;51.528;7.192;2022-09-09T03:22:18;1.70;;;1.60;;
18066;SDS011;9158;51.528;7.192;2022-09-09T03:22:51;2.90;;;2.25;;
18066;SDS011;9158;51.528;7.192;2022-09-09T03:23:22;2.72;;;2.53;;
18066;SDS011;9158;51.528;7.192;2022-09-09T03:23:53;6.15;;;2.88;;
18066;SDS011;9158;51.528;7.192;2022-09-09T03:24:25;3.72;;;2.17;;
18066;SDS011;9158;51.528;7.192;2022-09-09T03:24:57;4.57;;;2.47;;
18066;SDS011;9158;51.528;7.192;2022-09-09T03:25:28;2.80;;;1.92;;
18066;SDS011;9158;51.528;7.192;2022-09-09T03:26:00;3.03;;;1.80;;
18066;SDS011;9158;51.528;7.192;2022-09-09T03:26:41;4.30;;;1.80;;
18066;SDS011;9158;51.528;7.192;2022-09-09T03:27:16;3.85;;;2.22;;
18066;SDS011;9158;51.528;7.192;2022-09-09T03:27:48;4.45;;;2.13;;
18066;SDS011;9158;51.528;7.192;2022-09-09T03:28:20;2.95;;;1.90;;
18066;SDS011;9158;51.528;7.192;2022-09-09T03:28:52;2.95;;;2.00;;
18066;SDS011;9158;51.528;7.192;2022-09-09T03:29:26;4.38;;;2.13;;
18066;SDS011;9158;51.528;7.192;2022-09-09T03:30:01;2.03;;;1.83;;
18066;SDS011;9158;51.528;7.192;2022-09-09T03:30:34;3.33;;;2.45;;
18066;SDS011;9158;51.528;7.192;2022-09-09T03:31:05;2.55;;;1.90;;
18066;SDS011;9158;51.528;7.192;2022-09-09T03:31:43;4.10;;;2.10;;
18066;SDS011;9158;51.528;7.192;2022-09-09T03:32:16;2.22;;;1.77;;
18066;SDS011;9158;51.528;7.192;2022-09-09T03:32:48;2.88;;;2.00;;
18066;SDS011;9158;51.528;7.192;2022-09-09T03:33:20;3.70;;;2.30;;
18066;SDS011;9158;51.528;7.192;2022-09-09T03:33:51;2.50;;;2.10;;
18066;SDS011;9158;51.528;7.192;2022-09-09T03:34:24;3.78;;;1.95;;
18066;SDS011;9158;51.528;7.192;2022-09-09T03:34:55;1.92;;;1.55;;
18066;SDS011;9158;51.528;7.192;2022-09-09T03:35:27;2.97;;;1.80;;
18066;SDS011;9158;51.528;7.192;2022-09-09T03:35:58;2.08;;;1.50;;
18066;SDS011;9158;51.528;7.192;2022-09-09T03:36:29;2.38;;;2.00;;
18066;SDS011;9158;51.528;7.192;2022-09-09T03:37:01;3.38;;;1.60;;
18066;SDS011;9158;51.528;7.192;2022-09-09T03:37:32;1.90;;;1.75;;
18066;SDS011;9158;51.528;7.192;2022-09-09T03:38:04;2.30;;;1.73;;
18066;SDS011;9158;51.528;7.192;2022-09-09T03:38:37;1.88;;;1.40;;
18066;SDS011;9158;51.528;7.192;2022-09-09T03:39:10;3.25;;;1.70;;
18066;SDS011;9158;51.528;7.192;2022-09-09T03:39:42;5.00;;;1.65;;
18066;SDS011;9158;51.528;7.192;2022-09-09T03:40:14;2.45;;;1.92;;
18066;SDS011;9158;51.528;7.192;2022-09-09T03:40:50;2.63;;;1.90;;
18066;SDS011;9158;51.528;7.192;2022-09-09T03:41:22;3.75;;;1.88;;
18066;SDS011;9158;51.528;7.192;2022-09-09T03:41:54;4.55;;;1.67;;
18066;SDS011;9158;51.528;7.192;2022-09-09T03:42:26;2.35;;;1.80;;
18066;SDS011;9158;51.528;7.192;2022-09-09T03:42:59;2.72;;;1.42;;
18066;SDS011;9158;51.528;7.192;2022-09-09T03:43:30;1.70;;;1.60;;
18066;SDS011;9158;51.528;7.192;2022-09-09T03:44:03;5.50;;;2.85;;
18066;SDS011;9158;51.528;7.192;2022-09-09T03:44:40;4.40;;;1.90;;
18066;SDS011;9158;51.528;7.192;2022-09-09T03:45:12;2.47;;;1.75;;
18066;SDS011;9158;51.528;7.192;2022-09-09T03:45:45;3.13;;;1.75;;
18066;SDS011;9158;51.528;7.192;2022-09-09T03:46:18;3.00;;;1.77;;
18066;SDS011;9158;51.528;7.192;2022-09-09T03:46:49;4.93;;;1.98;;
18066;SDS011;9158;51.528;7.192;2022-09-09T03:47:21;2.47;;;1.60;;
18066;SDS011;9158;51.528;7.192;2022-09-09T03:47:54;2.97;;;2.47;;